createdAt,value
2023-03-21T00:00:45.744Z,6.91
2023-03-21T00:03:14.517Z,6.88
2023-03-21T00:05:43.357Z,6.90
2023-03-21T00:08:10.635Z,6.80
2023-03-21T00:10:42.085Z,6.78
2023-03-21T00:13:16.000Z,6.76
2023-03-21T00:16:21.038Z,6.80
2023-03-21T00:18:52.667Z,6.69
2023-03-21T00:24:09.120Z,6.63
2023-03-21T00:26:36.338Z,6.66
2023-03-21T00:29:03.659Z,6.61
2023-03-21T00:31:30.911Z,6.55
2023-03-21T00:33:58.754Z,6.52
2023-03-21T00:36:27.006Z,6.49
2023-03-21T00:38:54.824Z,6.47
2023-03-21T00:41:39.059Z,6.49
2023-03-21T00:44:08.816Z,6.41
2023-03-21T00:46:45.502Z,6.36
2023-03-21T00:49:16.495Z,6.38
2023-03-21T00:51:44.788Z,6.42
2023-03-21T00:54:13.115Z,6.30
2023-03-21T00:56:41.434Z,6.31
2023-03-21T00:59:08.662Z,6.17
2023-03-21T01:01:39.052Z,6.19
2023-03-21T01:07:36.277Z,6.25
2023-03-21T01:14:26.745Z,6.16
2023-03-21T01:16:54.409Z,6.13
2023-03-21T01:19:48.307Z,6.17
2023-03-21T01:22:16.379Z,6.09
2023-03-21T01:24:53.076Z,5.98
2023-03-21T01:31:28.331Z,5.88
2023-03-21T01:33:55.898Z,5.88
2023-03-21T01:36:26.531Z,5.73
2023-03-21T01:43:21.491Z,5.67
2023-03-21T01:46:51.466Z,5.70
2023-03-21T01:50:01.809Z,5.64
2023-03-21T01:56:35.577Z,5.60
2023-03-21T01:59:17.556Z,5.48
2023-03-21T02:06:53.734Z,5.46
2023-03-21T02:09:47.728Z,5.41
2023-03-21T02:12:19.885Z,5.35
2023-03-21T02:14:52.445Z,5.37
2023-03-21T02:17:46.106Z,5.38
2023-03-21T02:20:41.543Z,5.29
2023-03-21T02:23:31.270Z,5.18
2023-03-21T02:26:41.167Z,5.12
2023-03-21T02:29:44.973Z,5.03
2023-03-21T02:32:36.623Z,5.08
2023-03-21T02:35:30.411Z,5.11
2023-03-21T02:38:05.548Z,4.97
2023-03-21T02:40:39.880Z,5.05
2023-03-21T02:43:23.710Z,5.06
2023-03-21T02:46:15.151Z,5.07
2023-03-21T02:48:52.584Z,5.02
2023-03-21T02:51:26.505Z,4.99
2023-03-21T02:54:28.245Z,5.00
2023-03-21T02:56:59.578Z,4.99
2023-03-21T02:59:27.817Z,4.82
2023-03-21T03:01:58.395Z,4.90
2023-03-21T03:04:28.637Z,4.95
2023-03-21T03:06:58.618Z,4.79
2023-03-21T03:09:55.934Z,4.95
2023-03-21T03:12:46.071Z,4.92
2023-03-21T03:15:22.319Z,4.98
2023-03-21T03:17:57.485Z,4.94
2023-03-21T03:20:57.705Z,4.89
2023-03-21T03:23:43.138Z,4.91
2023-03-21T03:26:34.902Z,4.89
2023-03-21T03:29:07.457Z,4.91
2023-03-21T03:31:45.594Z,4.89
2023-03-21T03:34:18.185Z,4.95
2023-03-21T03:36:51.821Z,4.95
2023-03-21T03:39:19.523Z,4.97
2023-03-21T03:42:29.121Z,4.90
2023-03-21T03:44:57.384Z,4.96
2023-03-21T03:47:33.842Z,4.98
2023-03-21T03:50:13.440Z,4.87
2023-03-21T03:52:56.195Z,4.96
2023-03-21T03:55:34.829Z,4.78
2023-03-21T03:58:22.178Z,5.02
2023-03-21T04:00:54.972Z,5.02
2023-03-21T04:03:23.353Z,4.98
2023-03-21T04:05:52.034Z,4.97
2023-03-21T04:08:20.680Z,5.07
2023-03-21T04:10:55.637Z,5.03
2023-03-21T04:13:24.848Z,5.05
2023-03-21T04:16:03.756Z,5.08
2023-03-21T04:18:32.805Z,5.08
2023-03-21T04:21:01.472Z,5.12
2023-03-21T04:23:31.003Z,5.03
2023-03-21T04:25:58.337Z,5.11
2023-03-21T04:28:36.783Z,5.19
2023-03-21T04:31:25.214Z,5.08
2023-03-21T04:34:02.298Z,5.26
2023-03-21T04:36:39.482Z,5.20
2023-03-21T04:39:15.084Z,5.39
2023-03-21T04:41:46.881Z,5.41
2023-03-21T04:44:16.695Z,5.44
2023-03-21T04:46:44.640Z,5.49
2023-03-21T04:49:12.588Z,5.49
2023-03-21T04:51:40.263Z,5.54
2023-03-21T04:56:43.383Z,5.55
2023-03-21T04:59:19.870Z,5.55
2023-03-21T05:01:57.277Z,5.51
2023-03-21T05:04:56.569Z,5.55
2023-03-21T05:07:28.564Z,5.62
2023-03-21T05:09:57.861Z,5.62
2023-03-21T05:12:26.968Z,5.65
2023-03-21T05:15:09.794Z,5.63
2023-03-21T05:17:45.841Z,5.68
2023-03-21T05:20:43.785Z,5.55
2023-03-21T05:23:16.375Z,5.65
2023-03-21T05:25:45.745Z,5.65
2023-03-21T05:28:26.430Z,5.68
2023-03-21T05:30:58.233Z,5.67
2023-03-21T05:33:27.798Z,5.75
2023-03-21T05:35:55.464Z,5.75
2023-03-21T05:38:23.084Z,5.81
2023-03-21T05:40:54.492Z,5.87
2023-03-21T05:43:21.820Z,5.91
2023-03-21T05:45:49.108Z,5.93
2023-03-21T05:48:18.939Z,5.86
2023-03-21T05:51:10.382Z,5.92
2023-03-21T05:53:38.367Z,5.98
2023-03-21T05:56:06.409Z,5.89
2023-03-21T05:58:56.383Z,5.98
2023-03-21T06:01:24.832Z,5.95
2023-03-21T06:04:05.997Z,5.88
2023-03-21T06:06:34.044Z,5.93
2023-03-21T06:09:02.040Z,5.96
2023-03-21T06:11:34.194Z,5.96
2023-03-21T06:14:21.287Z,5.91
2023-03-21T06:17:20.883Z,5.92
2023-03-21T06:19:56.917Z,5.97
2023-03-21T06:22:32.027Z,5.95
2023-03-21T06:25:00.878Z,5.93
2023-03-21T06:27:28.626Z,5.84
2023-03-21T06:30:07.223Z,5.98
2023-03-21T06:32:39.933Z,5.99
2023-03-21T06:35:11.551Z,6.02
2023-03-21T06:37:39.030Z,5.91
2023-03-21T06:40:09.338Z,5.96
2023-03-21T06:42:51.755Z,5.86
2023-03-21T06:45:20.208Z,6.14
2023-03-21T06:47:47.703Z,6.04
2023-03-21T06:50:41.602Z,6.16
2023-03-21T06:53:08.805Z,6.26
2023-03-21T06:55:55.161Z,6.18
2023-03-21T06:58:23.371Z,6.35
2023-03-21T07:00:50.919Z,6.28
2023-03-21T07:03:19.502Z,6.39
2023-03-21T07:05:47.947Z,6.49
2023-03-21T07:08:17.714Z,6.57
2023-03-21T07:10:47.158Z,6.63
2023-03-21T07:13:16.246Z,6.69
2023-03-21T07:15:55.203Z,6.78
2023-03-21T07:18:22.402Z,6.76
2023-03-21T07:20:52.359Z,6.93
2023-03-21T07:23:22.641Z,6.98
2023-03-21T07:25:51.206Z,7.20
2023-03-21T07:28:19.407Z,7.20
2023-03-21T07:30:54.336Z,7.41
2023-03-21T07:33:23.283Z,7.54
2023-03-21T07:35:51.814Z,7.66
2023-03-21T07:38:19.926Z,7.68
2023-03-21T07:40:48.472Z,7.85
2023-03-21T07:43:16.481Z,8.06
2023-03-21T07:45:45.404Z,8.14
2023-03-21T07:48:21.612Z,8.22
2023-03-21T07:50:49.541Z,8.35
2023-03-21T07:53:16.833Z,8.45
2023-03-21T07:55:44.024Z,8.58
2023-03-21T07:58:11.428Z,8.69
2023-03-21T08:00:38.977Z,8.80
2023-03-21T08:03:06.531Z,8.91
2023-03-21T08:05:36.937Z,8.94
2023-03-21T08:08:06.310Z,9.15
2023-03-21T08:10:33.769Z,9.19
2023-03-21T08:13:01.094Z,9.08
2023-03-21T08:15:28.407Z,9.33
2023-03-21T08:17:55.620Z,9.59
2023-03-21T08:20:26.220Z,9.72
2023-03-21T08:22:53.454Z,9.84
2023-03-21T08:25:23.178Z,9.98
2023-03-21T08:27:52.386Z,10.11
2023-03-21T08:30:23.036Z,10.28
2023-03-21T08:32:50.762Z,10.53
2023-03-21T08:35:20.616Z,10.67
2023-03-21T08:39:00.945Z,10.87
2023-03-21T08:41:32.951Z,11.06
2023-03-21T08:44:00.552Z,11.06
2023-03-21T08:46:27.851Z,11.30
2023-03-21T08:48:55.340Z,11.36
2023-03-21T08:51:25.684Z,11.51
2023-03-21T08:53:53.004Z,11.70
2023-03-21T08:56:20.219Z,11.74
2023-03-21T08:58:47.742Z,11.92
2023-03-21T09:01:16.021Z,12.00
2023-03-21T09:03:43.999Z,12.02
2023-03-21T09:06:14.555Z,12.20
2023-03-21T09:08:42.323Z,12.18
2023-03-21T09:11:10.753Z,12.04
2023-03-21T09:13:38.153Z,12.23
2023-03-21T09:16:05.713Z,12.25
2023-03-21T09:18:47.445Z,12.23
2023-03-21T09:21:18.669Z,12.39
2023-03-21T09:23:48.735Z,12.45
2023-03-21T09:26:16.471Z,12.69
2023-03-21T09:28:43.810Z,12.68
2023-03-21T09:31:12.557Z,12.70
2023-03-21T09:33:40.913Z,12.71
2023-03-21T09:36:14.687Z,12.75
2023-03-21T09:38:45.791Z,12.88
2023-03-21T09:41:55.880Z,12.93
2023-03-21T09:44:44.012Z,12.87
2023-03-21T09:47:24.766Z,12.81
2023-03-21T09:50:11.224Z,12.84
2023-03-21T09:52:50.947Z,12.83
2023-03-21T09:55:35.341Z,12.86
2023-03-21T09:58:41.550Z,12.93
2023-03-21T10:01:35.586Z,12.98
2023-03-21T10:04:06.607Z,13.01
2023-03-21T10:06:40.784Z,13.13
2023-03-21T10:09:17.271Z,13.39
2023-03-21T10:12:07.618Z,13.64
2023-03-21T10:14:42.779Z,13.83
2023-03-21T10:17:33.930Z,14.08
2023-03-21T10:20:23.683Z,14.13
2023-03-21T10:22:54.503Z,14.25
2023-03-21T10:25:41.370Z,14.14
2023-03-21T10:28:15.670Z,14.32
2023-03-21T10:31:01.671Z,14.53
2023-03-21T10:33:34.832Z,14.52
2023-03-21T10:36:08.490Z,14.76
2023-03-21T10:38:37.764Z,14.83
2023-03-21T10:41:05.147Z,14.85
2023-03-21T10:43:37.662Z,14.92
2023-03-21T10:46:21.527Z,14.88
2023-03-21T10:48:55.192Z,14.91
2023-03-21T10:51:28.061Z,14.96
2023-03-21T10:54:01.778Z,14.93
2023-03-21T10:56:31.950Z,14.87
2023-03-21T10:59:01.731Z,14.86
2023-03-21T11:01:39.509Z,14.95
2023-03-21T11:04:22.934Z,14.86
2023-03-21T11:07:04.124Z,14.89
2023-03-21T11:09:54.973Z,14.82
2023-03-21T11:12:37.589Z,14.87
2023-03-21T11:15:37.554Z,14.98
2023-03-21T11:18:18.001Z,14.92
2023-03-21T11:20:51.360Z,14.95
2023-03-21T11:23:20.772Z,14.83
2023-03-21T11:25:51.137Z,14.86
2023-03-21T11:28:24.379Z,14.86
2023-03-21T11:30:52.740Z,14.94
2023-03-21T11:33:21.816Z,14.83
2023-03-21T11:36:07.157Z,14.81
2023-03-21T11:38:39.966Z,14.78
2023-03-21T11:41:07.739Z,14.91
2023-03-21T11:43:39.404Z,15.10
2023-03-21T11:46:09.725Z,15.13
2023-03-21T11:48:50.989Z,15.08
2023-03-21T11:51:41.632Z,15.09
2023-03-21T11:54:47.286Z,15.21
2023-03-21T11:57:39.633Z,15.20
2023-03-21T12:00:18.150Z,15.24
2023-03-21T12:03:07.967Z,15.33
2023-03-21T12:05:53.336Z,15.48
2023-03-21T12:08:44.306Z,15.55
2023-03-21T12:11:38.022Z,15.48
2023-03-21T12:14:13.930Z,15.52
2023-03-21T12:16:59.728Z,15.49
2023-03-21T12:19:55.013Z,15.48
2023-03-21T12:22:40.131Z,15.59
2023-03-21T12:25:19.312Z,15.53
2023-03-21T12:28:07.520Z,15.56
2023-03-21T12:30:59.497Z,15.73
2023-03-21T12:33:45.099Z,15.78
2023-03-21T12:36:38.562Z,15.80
2023-03-21T12:39:29.091Z,15.69
2023-03-21T12:42:18.766Z,15.65
2023-03-21T12:45:00.654Z,15.70
2023-03-21T12:47:31.203Z,15.77
2023-03-21T12:50:04.312Z,15.60
2023-03-21T12:52:37.281Z,15.72
2023-03-21T12:55:14.648Z,15.84
2023-03-21T12:57:57.788Z,16.02
2023-03-21T13:00:37.501Z,16.28
2023-03-21T13:03:39.989Z,16.52
2023-03-21T13:06:11.650Z,16.70
2023-03-21T13:08:56.851Z,16.83
2023-03-21T13:11:31.093Z,16.98
2023-03-21T13:14:06.665Z,17.00
2023-03-21T13:17:01.453Z,16.91
2023-03-21T13:19:38.394Z,16.99
2023-03-21T13:22:16.457Z,17.10
2023-03-21T13:24:58.455Z,17.09
2023-03-21T13:27:29.040Z,17.36
2023-03-21T13:30:18.258Z,17.40
2023-03-21T13:32:48.787Z,17.49
2023-03-21T13:35:27.938Z,17.53
2023-03-21T13:38:05.132Z,17.60
2023-03-21T13:40:41.213Z,17.23
2023-03-21T13:43:46.917Z,17.22
2023-03-21T13:46:46.888Z,17.12
2023-03-21T13:49:27.872Z,17.21
2023-03-21T13:52:00.024Z,17.12
2023-03-21T13:54:40.525Z,17.17
2023-03-21T13:57:32.206Z,17.26
2023-03-21T14:00:17.919Z,17.53
2023-03-21T14:03:14.536Z,17.61
2023-03-21T14:05:42.153Z,17.51
2023-03-21T14:08:24.739Z,17.60
2023-03-21T14:11:01.833Z,17.57
2023-03-21T14:13:33.089Z,17.60
2023-03-21T14:16:07.911Z,17.54
2023-03-21T14:18:54.079Z,17.62
2023-03-21T14:21:33.402Z,17.62
2023-03-21T14:24:05.843Z,17.67
2023-03-21T14:26:36.893Z,17.80
2023-03-21T14:29:22.888Z,17.58
2023-03-21T14:31:53.812Z,17.33
2023-03-21T14:34:22.819Z,17.36
2023-03-21T14:36:57.686Z,17.52
2023-03-21T14:39:32.616Z,17.58
2023-03-21T14:42:06.685Z,17.68
2023-03-21T14:44:57.849Z,17.68
2023-03-21T14:47:28.212Z,17.84
2023-03-21T14:49:57.509Z,17.95
2023-03-21T14:52:28.089Z,17.80
2023-03-21T14:54:56.630Z,17.96
2023-03-21T14:57:32.639Z,17.74
2023-03-21T15:00:13.186Z,17.65
2023-03-21T15:02:42.171Z,17.66
2023-03-21T15:05:21.001Z,17.52
2023-03-21T15:08:03.216Z,17.41
2023-03-21T15:10:32.122Z,17.31
2023-03-21T15:13:13.283Z,17.52
2023-03-21T15:15:41.411Z,17.61
2023-03-21T15:18:09.796Z,17.65
2023-03-21T15:20:38.631Z,17.73
2023-03-21T15:23:12.187Z,17.51
2023-03-21T15:25:40.429Z,17.66
2023-03-21T15:28:08.230Z,17.76
2023-03-21T15:30:35.832Z,17.68
2023-03-21T15:33:10.037Z,17.84
2023-03-21T15:35:46.387Z,17.97
2023-03-21T15:38:40.496Z,18.04
2023-03-21T15:41:21.415Z,18.03
2023-03-21T15:43:55.841Z,18.10
2023-03-21T15:46:45.500Z,18.03
2023-03-21T15:49:16.323Z,17.77
2023-03-21T15:51:55.081Z,17.69
2023-03-21T15:54:28.469Z,17.78
2023-03-21T15:57:01.554Z,17.59
2023-03-21T15:59:31.128Z,17.47
2023-03-21T16:01:58.691Z,17.44
2023-03-21T16:04:26.822Z,17.47
2023-03-21T16:07:03.278Z,17.09
2023-03-21T16:09:46.593Z,17.16
2023-03-21T16:12:17.539Z,17.06
2023-03-21T16:14:47.577Z,17.05
2023-03-21T16:17:40.889Z,16.97
2023-03-21T16:20:33.381Z,17.02
2023-03-21T16:23:01.518Z,16.90
2023-03-21T16:25:32.898Z,16.70
2023-03-21T16:28:00.557Z,16.60
2023-03-21T16:30:27.785Z,16.51
2023-03-21T16:32:54.922Z,16.44
2023-03-21T16:35:23.584Z,16.39
2023-03-21T16:37:51.926Z,16.32
2023-03-21T16:40:35.849Z,16.08
2023-03-21T16:43:08.429Z,15.93
2023-03-21T16:45:36.222Z,15.99
2023-03-21T16:48:04.701Z,15.99
2023-03-21T16:50:37.908Z,15.90
2023-03-21T16:53:05.626Z,15.89
2023-03-21T16:55:34.983Z,15.74
2023-03-21T16:58:02.213Z,15.64
2023-03-21T17:00:31.058Z,15.59
2023-03-21T17:03:02.339Z,15.46
2023-03-21T17:05:32.603Z,15.46
2023-03-21T17:08:02.759Z,15.45
2023-03-21T17:10:31.928Z,15.41
2023-03-21T17:13:00.680Z,15.38
2023-03-21T17:15:28.123Z,15.30
2023-03-21T17:17:55.999Z,15.22
2023-03-21T17:20:29.546Z,15.23
2023-03-21T17:22:56.723Z,15.01
2023-03-21T17:25:24.697Z,15.10
2023-03-21T17:27:55.366Z,15.07
2023-03-21T17:30:40.281Z,15.03
2023-03-21T17:33:08.524Z,14.91
2023-03-21T17:35:36.326Z,14.86
2023-03-21T17:38:04.502Z,14.82
2023-03-21T17:40:32.885Z,14.76
2023-03-21T17:43:01.643Z,14.60
2023-03-21T17:45:29.892Z,14.62
2023-03-21T17:47:58.323Z,14.52
2023-03-21T17:50:27.658Z,14.41
2023-03-21T17:52:57.689Z,14.42
2023-03-21T17:55:25.140Z,14.26
2023-03-21T17:57:52.555Z,14.15
2023-03-21T18:00:23.349Z,14.17
2023-03-21T18:02:50.983Z,14.03
2023-03-21T18:05:18.988Z,13.91
2023-03-21T18:08:08.714Z,13.87
2023-03-21T18:10:33.899Z,13.74
2023-03-21T18:13:01.068Z,13.62
2023-03-21T18:15:30.319Z,13.44
2023-03-21T18:17:58.381Z,13.39
2023-03-21T18:20:50.300Z,13.30
2023-03-21T18:23:18.990Z,13.26
2023-03-21T18:25:47.073Z,13.15
2023-03-21T18:28:19.402Z,13.07
2023-03-21T18:33:41.160Z,12.87
2023-03-21T18:36:10.517Z,12.63
2023-03-21T18:38:38.545Z,12.63
2023-03-21T18:41:08.121Z,12.66
2023-03-21T18:46:24.956Z,12.48
2023-03-21T18:48:52.304Z,12.53
2023-03-21T18:51:19.788Z,12.50
2023-03-21T18:53:47.252Z,12.40
2023-03-21T18:56:57.690Z,12.36
2023-03-21T18:59:03.201Z,12.42
2023-03-21T19:01:30.533Z,12.39
2023-03-21T19:06:48.036Z,12.33
2023-03-21T19:09:15.455Z,12.29
2023-03-21T19:11:43.988Z,12.25
2023-03-21T19:14:13.541Z,12.18
2023-03-21T19:17:13.854Z,12.12
2023-03-21T19:19:28.665Z,12.05
2023-03-21T19:21:56.029Z,11.96
2023-03-21T19:24:28.092Z,11.98
2023-03-21T19:26:55.987Z,11.91
2023-03-21T19:29:23.356Z,11.84
2023-03-21T19:31:51.951Z,11.75
2023-03-21T19:34:19.794Z,11.66
2023-03-21T19:36:51.562Z,11.56
2023-03-21T19:39:22.937Z,11.48
2023-03-21T19:41:54.377Z,11.45
2023-03-21T19:44:25.133Z,11.27
2023-03-21T19:46:52.420Z,11.28
2023-03-21T19:49:22.323Z,11.30
2023-03-21T19:51:49.917Z,11.21
2023-03-21T19:54:18.216Z,11.17
2023-03-21T19:56:48.027Z,11.10
2023-03-21T19:59:15.843Z,11.08
2023-03-21T20:01:57.052Z,11.09
2023-03-21T20:04:28.218Z,11.08
2023-03-21T20:06:58.636Z,11.05
2023-03-21T20:09:51.778Z,11.01
2023-03-21T20:12:17.957Z,10.90
2023-03-21T20:14:49.092Z,10.83
2023-03-21T20:17:17.066Z,10.85
2023-03-21T20:19:44.271Z,10.73
2023-03-21T20:22:21.776Z,10.58
2023-03-21T20:24:55.508Z,10.45
2023-03-21T20:27:25.900Z,10.46
2023-03-21T20:30:09.279Z,10.38
2023-03-21T20:32:38.516Z,10.31
2023-03-21T20:35:21.158Z,10.28
2023-03-21T20:37:55.410Z,10.04
2023-03-21T20:40:22.979Z,10.09
2023-03-21T20:42:50.595Z,10.05
2023-03-21T20:45:19.607Z,9.99
2023-03-21T20:47:46.963Z,9.92
2023-03-21T20:50:14.820Z,9.88
2023-03-21T20:53:01.237Z,9.77
2023-03-21T20:55:34.511Z,9.83
2023-03-21T20:58:02.270Z,9.79
2023-03-21T21:00:30.225Z,9.71
2023-03-21T21:02:58.225Z,9.55
2023-03-21T21:05:31.430Z,9.57
2023-03-21T21:08:02.040Z,9.50
2023-03-21T21:10:30.924Z,9.42
2023-03-21T21:12:59.118Z,9.31
2023-03-21T21:15:27.311Z,9.32
2023-03-21T21:18:06.442Z,9.22
2023-03-21T21:20:35.545Z,9.13
2023-03-21T21:23:02.845Z,9.11
2023-03-21T21:25:34.341Z,9.02
2023-03-21T21:28:03.017Z,8.99
2023-03-21T21:30:32.811Z,8.95
2023-03-21T21:33:01.100Z,8.82
2023-03-21T21:35:28.730Z,8.68
2023-03-21T21:37:56.240Z,8.79
2023-03-21T21:40:23.710Z,8.70
2023-03-21T21:42:51.064Z,8.70
2023-03-21T21:45:19.168Z,8.65
2023-03-21T21:47:46.764Z,8.63
2023-03-21T21:50:14.641Z,8.59
2023-03-21T21:52:44.620Z,8.62
2023-03-21T21:55:13.864Z,8.57
2023-03-21T21:57:41.927Z,8.49
2023-03-21T22:00:17.453Z,8.54
2023-03-21T22:02:45.049Z,8.40
2023-03-21T22:05:12.477Z,8.30
2023-03-21T22:07:40.667Z,8.40
2023-03-21T22:10:08.463Z,8.30
2023-03-21T22:12:35.808Z,8.28
2023-03-21T22:15:07.578Z,8.27
2023-03-21T22:17:46.958Z,8.16
2023-03-21T22:20:19.800Z,8.16
2023-03-21T22:22:48.157Z,7.96
2023-03-21T22:25:16.665Z,7.97
2023-03-21T22:27:45.295Z,7.80
2023-03-21T22:30:17.635Z,7.87
2023-03-21T22:32:56.402Z,7.82
2023-03-21T22:35:30.508Z,7.86
2023-03-21T22:37:57.821Z,7.79
2023-03-21T22:40:26.767Z,7.76
2023-03-21T22:42:54.531Z,7.52
2023-03-21T22:45:21.842Z,7.59
2023-03-21T22:47:49.051Z,7.53
2023-03-21T22:50:16.462Z,7.54
2023-03-21T22:52:43.637Z,7.50
2023-03-21T22:55:12.884Z,7.30
2023-03-21T22:57:40.135Z,7.48
2023-03-21T23:00:14.668Z,7.45
2023-03-21T23:02:42.372Z,7.48
2023-03-21T23:05:10.546Z,7.39
2023-03-21T23:07:38.898Z,7.39
2023-03-21T23:10:07.284Z,7.37
2023-03-21T23:12:34.822Z,7.18
2023-03-21T23:15:02.584Z,7.24
2023-03-21T23:17:29.942Z,7.26
2023-03-21T23:19:57.230Z,7.16
2023-03-21T23:22:24.385Z,7.15
2023-03-21T23:24:51.758Z,7.11
2023-03-21T23:27:18.920Z,7.10
2023-03-21T23:29:45.987Z,7.08
2023-03-21T23:32:13.330Z,7.12
2023-03-21T23:34:40.786Z,7.06
2023-03-21T23:37:07.962Z,6.96
2023-03-21T23:39:35.355Z,7.05
2023-03-21T23:42:02.556Z,6.95
2023-03-21T23:44:33.601Z,7.10
2023-03-21T23:47:04.909Z,7.02
2023-03-21T23:49:33.942Z,7.08
2023-03-21T23:52:01.074Z,7.00
2023-03-21T23:54:28.287Z,6.91
2023-03-21T23:56:55.619Z,7.02
2023-03-21T23:59:22.989Z,6.99
